createdAt,value
2022-12-08T00:02:21.044Z,70.75
2022-12-08T00:05:08.265Z,70.85
2022-12-08T00:07:57.978Z,71.23
2022-12-08T00:10:48.428Z,71.29
2022-12-08T00:13:15.803Z,71.42
2022-12-08T00:15:44.189Z,71.67
2022-12-08T00:18:13.175Z,71.57
2022-12-08T00:20:41.449Z,71.63
2022-12-08T00:23:09.618Z,71.68
2022-12-08T00:25:37.797Z,71.69
2022-12-08T00:28:05.962Z,71.72
2022-12-08T00:30:34.146Z,71.72
2022-12-08T00:33:02.211Z,71.60
2022-12-08T00:35:30.284Z,71.55
2022-12-08T00:38:01.022Z,71.53
2022-12-08T00:40:29.703Z,71.45
2022-12-08T00:42:57.878Z,71.59
2022-12-08T00:45:26.146Z,71.66
2022-12-08T00:47:54.325Z,71.86
2022-12-08T00:50:22.601Z,71.95
2022-12-08T00:52:50.664Z,72.00
2022-12-08T00:55:19.348Z,72.14
2022-12-08T00:57:47.542Z,72.33
2022-12-08T01:00:16.326Z,72.33
2022-12-08T01:02:44.488Z,72.37
2022-12-08T01:05:12.633Z,72.22
2022-12-08T01:07:41.017Z,72.19
2022-12-08T01:10:09.759Z,72.14
2022-12-08T01:12:38.011Z,72.05
2022-12-08T01:15:06.798Z,72.22
2022-12-08T01:17:36.714Z,72.39
2022-12-08T01:20:07.736Z,72.10
2022-12-08T01:22:39.108Z,72.02
2022-12-08T01:25:08.007Z,71.93
2022-12-08T01:27:36.167Z,71.80
2022-12-08T01:30:06.659Z,71.85
2022-12-08T01:32:35.180Z,71.89
2022-12-08T01:35:03.564Z,71.98
2022-12-08T01:37:31.563Z,71.99
2022-12-08T01:39:59.691Z,71.98
2022-12-08T01:42:27.875Z,71.83
2022-12-08T01:45:04.010Z,71.99
2022-12-08T01:47:37.720Z,71.90
2022-12-08T01:50:08.708Z,71.97
2022-12-08T01:52:41.819Z,72.08
2022-12-08T01:55:24.041Z,72.13
2022-12-08T01:57:56.561Z,72.13
2022-12-08T02:00:25.009Z,72.02
2022-12-08T02:03:02.759Z,72.31
2022-12-08T02:05:38.284Z,72.20
2022-12-08T02:08:09.645Z,72.09
2022-12-08T02:10:41.788Z,72.36
2022-12-08T02:13:15.092Z,72.22
2022-12-08T02:16:10.674Z,72.18
2022-12-08T02:19:22.148Z,72.37
2022-12-08T02:21:48.319Z,72.63
2022-12-08T02:24:38.403Z,72.61
2022-12-08T02:27:21.349Z,72.72
2022-12-08T02:30:04.991Z,72.74
2022-12-08T02:32:59.210Z,72.77
2022-12-08T02:35:51.087Z,72.81
2022-12-08T02:38:25.389Z,72.60
2022-12-08T02:41:23.982Z,72.68
2022-12-08T02:44:05.459Z,72.63
2022-12-08T02:46:40.103Z,72.62
2022-12-08T02:49:08.367Z,72.53
2022-12-08T02:51:36.556Z,72.44
2022-12-08T02:54:05.028Z,72.45
2022-12-08T02:57:14.696Z,72.44
2022-12-08T03:00:09.912Z,72.35
2022-12-08T03:02:50.157Z,72.26
2022-12-08T03:05:23.830Z,72.27
2022-12-08T03:08:03.757Z,72.25
2022-12-08T03:10:46.709Z,72.26
2022-12-08T03:13:19.917Z,72.43
2022-12-08T03:15:51.799Z,72.40
2022-12-08T03:18:24.343Z,72.57
2022-12-08T03:20:52.611Z,72.64
2022-12-08T03:23:24.636Z,72.74
2022-12-08T03:26:08.834Z,72.81
2022-12-08T03:28:38.034Z,72.89
2022-12-08T03:31:10.169Z,72.88
2022-12-08T03:33:41.919Z,72.97
2022-12-08T03:36:12.455Z,72.87
2022-12-08T03:38:43.625Z,72.95
2022-12-08T03:41:18.455Z,72.81
2022-12-08T03:43:52.372Z,72.87
2022-12-08T03:48:50.759Z,72.77
2022-12-08T03:51:19.609Z,72.92
2022-12-08T03:53:48.857Z,72.94
2022-12-08T03:56:30.853Z,72.66
2022-12-08T03:58:59.330Z,72.58
2022-12-08T04:01:27.784Z,72.73
2022-12-08T04:03:56.297Z,72.61
2022-12-08T04:06:24.971Z,72.71
2022-12-08T04:08:53.759Z,72.71
2022-12-08T04:11:22.214Z,72.65
2022-12-08T04:13:50.514Z,72.58
2022-12-08T04:16:25.067Z,72.66
2022-12-08T04:18:53.941Z,72.41
2022-12-08T04:21:22.528Z,72.28
2022-12-08T04:23:52.889Z,72.18
2022-12-08T04:26:23.280Z,72.23
2022-12-08T04:28:51.547Z,72.10
2022-12-08T04:31:20.019Z,71.98
2022-12-08T04:33:49.078Z,71.93
2022-12-08T04:36:17.478Z,71.88
2022-12-08T04:38:45.989Z,71.92
2022-12-08T04:41:14.264Z,71.84
2022-12-08T04:43:44.579Z,71.72
2022-12-08T04:46:13.230Z,71.70
2022-12-08T04:48:42.158Z,71.55
2022-12-08T04:51:19.338Z,71.59
2022-12-08T04:53:48.040Z,71.65
2022-12-08T04:56:18.766Z,71.61
2022-12-08T04:58:47.604Z,71.53
2022-12-08T05:01:16.542Z,71.54
2022-12-08T05:03:44.815Z,71.51
2022-12-08T05:06:14.555Z,71.41
2022-12-08T05:08:43.840Z,71.57
2022-12-08T05:11:13.446Z,71.77
2022-12-08T05:13:41.907Z,71.78
2022-12-08T05:16:13.348Z,71.68
2022-12-08T05:18:42.505Z,71.60
2022-12-08T05:21:11.856Z,71.60
2022-12-08T05:23:40.152Z,71.58
2022-12-08T05:26:08.432Z,71.65
2022-12-08T05:28:41.716Z,71.59
2022-12-08T05:31:15.701Z,71.63
2022-12-08T05:33:45.558Z,71.49
2022-12-08T05:36:15.729Z,71.53
2022-12-08T05:38:44.965Z,71.40
2022-12-08T05:41:20.111Z,71.21
2022-12-08T05:43:48.412Z,71.12
2022-12-08T05:46:17.719Z,71.02
2022-12-08T05:48:46.265Z,70.95
2022-12-08T05:51:20.475Z,70.95
2022-12-08T05:53:50.881Z,70.87
2022-12-08T05:56:20.712Z,70.98
2022-12-08T05:58:49.908Z,71.08
2022-12-08T06:01:30.562Z,71.23
2022-12-08T06:04:01.427Z,71.30
2022-12-08T06:06:30.526Z,71.31
2022-12-08T06:08:59.002Z,71.41
2022-12-08T06:11:29.928Z,71.34
2022-12-08T06:13:59.153Z,71.39
2022-12-08T06:16:29.650Z,71.35
2022-12-08T06:18:59.710Z,71.60
2022-12-08T06:21:28.370Z,71.71
2022-12-08T06:23:56.573Z,71.71
2022-12-08T06:26:25.218Z,71.78
2022-12-08T06:28:53.803Z,71.81
2022-12-08T06:31:27.030Z,72.04
2022-12-08T06:33:55.653Z,72.31
2022-12-08T06:36:28.243Z,72.32
2022-12-08T06:38:57.054Z,72.02
2022-12-08T06:41:26.964Z,72.27
2022-12-08T06:43:59.127Z,72.35
2022-12-08T06:46:27.499Z,72.65
2022-12-08T06:48:55.986Z,72.61
2022-12-08T06:51:24.552Z,72.65
2022-12-08T06:53:52.957Z,72.70
2022-12-08T06:56:24.641Z,72.67
2022-12-08T06:58:53.344Z,72.70
2022-12-08T07:01:22.725Z,72.67
2022-12-08T07:03:51.407Z,72.64
2022-12-08T07:06:23.552Z,72.69
2022-12-08T07:08:53.385Z,72.72
2022-12-08T07:11:23.092Z,72.81
2022-12-08T07:13:52.002Z,72.89
2022-12-08T07:16:21.963Z,72.93
2022-12-08T07:18:51.825Z,72.90
2022-12-08T07:21:20.595Z,73.02
2022-12-08T07:23:57.350Z,73.12
2022-12-08T07:26:27.490Z,73.15
2022-12-08T07:28:55.853Z,73.25
2022-12-08T07:31:25.918Z,73.21
2022-12-08T07:33:56.834Z,73.20
2022-12-08T07:36:27.660Z,73.29
2022-12-08T07:38:56.995Z,73.36
2022-12-08T07:41:26.852Z,73.31
2022-12-08T07:43:56.964Z,73.26
2022-12-08T07:46:26.817Z,73.27
2022-12-08T07:48:55.694Z,73.23
2022-12-08T07:51:27.664Z,73.24
2022-12-08T07:53:55.923Z,73.25
2022-12-08T07:56:24.686Z,73.26
2022-12-08T07:58:53.740Z,73.23
2022-12-08T08:01:25.761Z,73.20
2022-12-08T08:03:57.586Z,73.34
2022-12-08T08:06:26.745Z,72.98
2022-12-08T08:08:55.836Z,73.16
2022-12-08T08:11:24.848Z,73.12
2022-12-08T08:13:54.718Z,73.18
2022-12-08T08:16:23.991Z,73.24
2022-12-08T08:18:52.729Z,73.16
2022-12-08T08:21:44.949Z,73.10
2022-12-08T08:24:10.679Z,72.90
2022-12-08T08:26:39.020Z,72.58
2022-12-08T08:29:07.458Z,72.05
2022-12-08T08:31:36.109Z,72.26
2022-12-08T08:34:06.668Z,72.74
2022-12-08T08:36:35.752Z,72.70
2022-12-08T08:39:04.761Z,72.49
2022-12-08T08:41:33.531Z,72.36
2022-12-08T08:44:02.125Z,72.56
2022-12-08T08:46:30.842Z,72.54
2022-12-08T08:48:59.387Z,72.26
2022-12-08T08:51:29.370Z,72.04
2022-12-08T08:53:58.404Z,72.22
2022-12-08T08:56:27.082Z,72.11
2022-12-08T08:58:55.768Z,72.03
2022-12-08T09:01:27.576Z,72.01
2022-12-08T09:03:56.911Z,71.68
2022-12-08T09:06:26.211Z,71.38
2022-12-08T09:08:54.822Z,71.16
2022-12-08T09:11:26.259Z,70.97
2022-12-08T09:13:55.556Z,70.54
2022-12-08T09:16:24.617Z,70.56
2022-12-08T09:18:53.476Z,70.30
2022-12-08T09:21:26.654Z,69.66
2022-12-08T09:23:57.644Z,69.29
2022-12-08T09:26:27.687Z,69.13
2022-12-08T09:28:58.884Z,69.31
2022-12-08T09:31:28.311Z,69.14
2022-12-08T09:33:56.826Z,69.28
2022-12-08T09:36:25.811Z,69.46
2022-12-08T09:38:54.913Z,69.28
2022-12-08T09:41:37.574Z,69.11
2022-12-08T09:44:27.443Z,68.86
2022-12-08T09:46:56.671Z,68.69
2022-12-08T09:49:40.046Z,68.35
2022-12-08T09:52:25.782Z,68.84
2022-12-08T09:55:00.769Z,68.87
2022-12-08T09:57:32.459Z,68.05
2022-12-08T10:00:07.393Z,67.47
2022-12-08T10:02:37.649Z,67.71
2022-12-08T10:05:10.871Z,66.86
2022-12-08T10:12:06.219Z,65.67
2022-12-08T10:16:01.197Z,66.09
2022-12-08T10:22:46.479Z,65.78
2022-12-08T10:25:48.862Z,65.36
2022-12-08T10:32:47.002Z,65.46
2022-12-08T10:35:25.790Z,65.08
2022-12-08T10:38:01.168Z,65.11
2022-12-08T10:40:45.352Z,64.62
2022-12-08T10:43:26.601Z,64.21
2022-12-08T10:45:55.824Z,64.19
2022-12-08T10:48:33.957Z,64.92
2022-12-08T10:51:05.763Z,63.77
2022-12-08T10:53:46.013Z,62.54
2022-12-08T10:56:18.290Z,63.03
2022-12-08T10:58:48.318Z,63.25
2022-12-08T11:01:28.275Z,63.18
2022-12-08T11:04:03.109Z,63.11
2022-12-08T11:06:36.144Z,62.87
2022-12-08T11:09:49.229Z,63.07
2022-12-08T11:12:20.920Z,62.78
2022-12-08T11:15:17.537Z,62.87
2022-12-08T11:17:52.211Z,62.63
2022-12-08T11:20:25.823Z,62.80
2022-12-08T11:22:56.699Z,62.53
2022-12-08T11:25:28.446Z,62.77
2022-12-08T11:27:59.804Z,62.52
2022-12-08T11:30:33.692Z,62.25
2022-12-08T11:33:14.531Z,62.44
2022-12-08T11:35:47.766Z,62.39
2022-12-08T11:38:24.092Z,62.25
2022-12-08T11:41:10.929Z,62.19
2022-12-08T11:44:08.336Z,62.36
2022-12-08T11:46:57.784Z,62.62
2022-12-08T11:49:35.174Z,62.73
2022-12-08T11:52:21.762Z,62.68
2022-12-08T11:55:40.642Z,62.62
2022-12-08T11:58:20.546Z,62.84
2022-12-08T12:00:50.067Z,62.95
2022-12-08T12:03:34.911Z,63.22
2022-12-08T12:09:03.286Z,63.54
2022-12-08T12:12:09.867Z,63.85
2022-12-08T12:15:13.002Z,64.02
2022-12-08T12:17:55.855Z,64.27
2022-12-08T12:20:33.055Z,64.45
2022-12-08T12:23:06.403Z,64.31
2022-12-08T12:25:37.192Z,64.45
2022-12-08T12:28:09.634Z,64.30
2022-12-08T12:31:07.145Z,64.36
2022-12-08T12:33:37.137Z,64.28
2022-12-08T12:36:09.673Z,64.26
2022-12-08T12:39:06.340Z,64.30
2022-12-08T12:41:46.874Z,63.96
2022-12-08T12:44:15.049Z,63.92
2022-12-08T12:46:50.403Z,63.79
2022-12-08T12:49:40.701Z,64.05
2022-12-08T12:52:24.323Z,63.96
2022-12-08T12:54:53.020Z,64.15
2022-12-08T12:57:21.488Z,64.07
2022-12-08T12:59:55.516Z,63.60
2022-12-08T13:02:36.623Z,63.64
2022-12-08T13:05:29.129Z,63.62
2022-12-08T13:08:27.133Z,63.50
2022-12-08T13:11:10.723Z,63.29
2022-12-08T13:13:55.808Z,63.16
2022-12-08T13:16:28.467Z,63.14
2022-12-08T13:19:02.516Z,63.31
2022-12-08T13:21:37.304Z,63.36
2022-12-08T13:24:14.700Z,63.50
2022-12-08T13:27:05.420Z,63.35
2022-12-08T13:29:35.829Z,63.32
2022-12-08T13:32:25.011Z,63.40
2022-12-08T13:35:01.565Z,63.44
2022-12-08T13:37:52.417Z,63.38
2022-12-08T13:40:27.915Z,63.52
2022-12-08T13:43:28.263Z,63.45
2022-12-08T13:50:32.410Z,63.76
2022-12-08T13:56:05.479Z,63.95
2022-12-08T13:57:33.189Z,63.97
2022-12-08T14:00:20.744Z,64.15
2022-12-08T14:02:53.058Z,64.32
2022-12-08T14:05:41.164Z,64.40
2022-12-08T14:08:57.122Z,64.65
2022-12-08T14:11:34.936Z,64.73
2022-12-08T14:14:06.192Z,64.76
2022-12-08T14:16:43.201Z,64.70
2022-12-08T14:19:20.661Z,65.05
2022-12-08T14:21:57.738Z,65.09
2022-12-08T14:24:28.903Z,65.35
2022-12-08T14:27:01.580Z,65.43
2022-12-08T14:29:49.002Z,65.47
2022-12-08T14:32:33.464Z,65.45
2022-12-08T14:35:07.974Z,65.37
2022-12-08T14:37:42.450Z,65.59
2022-12-08T14:40:23.074Z,65.69
2022-12-08T14:42:53.803Z,65.65
2022-12-08T14:45:22.278Z,65.67
2022-12-08T14:47:52.440Z,65.72
2022-12-08T14:50:35.676Z,65.80
2022-12-08T14:53:05.230Z,65.77
2022-12-08T14:55:38.208Z,65.71
2022-12-08T14:58:06.894Z,65.67
2022-12-08T15:00:35.515Z,65.56
2022-12-08T15:03:08.068Z,65.64
2022-12-08T15:05:36.808Z,65.57
2022-12-08T15:08:07.417Z,65.62
2022-12-08T15:10:40.476Z,65.66
2022-12-08T15:13:09.055Z,65.71
2022-12-08T15:15:57.476Z,65.83
2022-12-08T15:18:35.432Z,65.65
2022-12-08T15:21:09.240Z,65.79
2022-12-08T15:23:46.332Z,65.87
2022-12-08T15:26:23.749Z,65.99
2022-12-08T15:28:53.405Z,65.93
2022-12-08T15:31:22.045Z,66.06
2022-12-08T15:33:50.566Z,66.14
2022-12-08T15:36:19.149Z,66.15
2022-12-08T15:38:49.724Z,66.34
2022-12-08T15:41:18.362Z,66.32
2022-12-08T15:43:47.059Z,66.44
2022-12-08T15:46:15.786Z,66.65
2022-12-08T15:48:44.624Z,66.55
2022-12-08T15:51:12.931Z,66.56
2022-12-08T15:53:42.968Z,66.49
2022-12-08T15:56:29.591Z,66.48
2022-12-08T15:58:58.685Z,66.43
2022-12-08T16:01:27.905Z,66.32
2022-12-08T16:04:27.884Z,66.48
2022-12-08T16:07:20.148Z,66.62
2022-12-08T16:09:42.231Z,66.58
2022-12-08T16:13:34.042Z,66.58
2022-12-08T16:15:52.972Z,66.64
2022-12-08T16:18:29.123Z,66.82
2022-12-08T16:21:10.333Z,66.87
2022-12-08T16:23:46.029Z,66.96
2022-12-08T16:26:35.761Z,66.97
2022-12-08T16:29:06.368Z,67.13
2022-12-08T16:31:35.178Z,67.13
2022-12-08T16:34:03.888Z,67.17
2022-12-08T16:36:32.884Z,67.19
2022-12-08T16:39:01.670Z,67.09
2022-12-08T16:41:48.746Z,66.92
2022-12-08T16:44:17.975Z,66.88
2022-12-08T16:46:46.670Z,66.82
2022-12-08T16:49:15.867Z,66.85
2022-12-08T16:51:44.839Z,66.77
2022-12-08T16:54:14.237Z,66.72
2022-12-08T16:56:43.359Z,66.71
2022-12-08T16:59:13.388Z,66.60
2022-12-08T17:01:43.052Z,66.49
2022-12-08T17:07:03.357Z,66.10
2022-12-08T17:09:32.554Z,66.05
2022-12-08T17:12:04.050Z,66.07
2022-12-08T17:14:35.010Z,66.12
2022-12-08T17:17:04.274Z,66.11
2022-12-08T17:19:34.000Z,66.14
2022-12-08T17:22:13.263Z,66.11
2022-12-08T17:24:54.837Z,66.02
2022-12-08T17:27:23.540Z,65.96
2022-12-08T17:29:52.501Z,65.97
2022-12-08T17:32:22.183Z,65.93
2022-12-08T17:34:51.152Z,65.98
2022-12-08T17:37:20.860Z,66.12
2022-12-08T17:39:49.894Z,66.14
2022-12-08T17:42:19.102Z,66.20
2022-12-08T17:44:48.104Z,66.23
2022-12-08T17:47:16.558Z,66.29
2022-12-08T17:49:46.489Z,66.27
2022-12-08T17:52:15.000Z,66.22
2022-12-08T17:54:44.176Z,66.15
2022-12-08T17:57:13.986Z,66.14
2022-12-08T17:59:42.665Z,66.13
2022-12-08T18:02:12.894Z,66.13
2022-12-08T18:04:43.642Z,66.19
2022-12-08T18:07:13.121Z,66.20
2022-12-08T18:09:42.735Z,66.26
2022-12-08T18:12:11.738Z,66.18
2022-12-08T18:14:40.524Z,66.24
2022-12-08T18:17:09.555Z,66.39
2022-12-08T18:19:38.825Z,66.45
2022-12-08T18:22:07.911Z,66.59
2022-12-08T18:24:38.610Z,66.63
2022-12-08T18:27:09.325Z,66.71
2022-12-08T18:29:38.876Z,66.71
2022-12-08T18:32:08.684Z,66.71
2022-12-08T18:34:37.727Z,66.73
2022-12-08T18:37:09.065Z,66.82
2022-12-08T18:39:38.324Z,66.80
2022-12-08T18:42:29.592Z,66.85
2022-12-08T18:45:04.695Z,66.96
2022-12-08T18:47:37.725Z,67.06
2022-12-08T18:50:09.167Z,67.14
2022-12-08T18:52:38.639Z,67.07
2022-12-08T18:55:09.974Z,67.11
2022-12-08T18:57:42.821Z,67.17
2022-12-08T19:00:15.265Z,67.22
2022-12-08T19:02:45.448Z,67.24
2022-12-08T19:05:15.262Z,67.32
2022-12-08T19:07:45.942Z,67.31
2022-12-08T19:10:15.995Z,67.40
2022-12-08T19:12:46.114Z,67.38
2022-12-08T19:15:16.335Z,67.57
2022-12-08T19:17:46.281Z,67.76
2022-12-08T19:20:15.803Z,67.89
2022-12-08T19:22:45.896Z,68.03
2022-12-08T19:25:15.040Z,68.08
2022-12-08T19:27:44.460Z,68.22
2022-12-08T19:30:14.184Z,68.32
2022-12-08T19:32:42.712Z,68.41
2022-12-08T19:35:11.985Z,68.49
2022-12-08T19:37:41.763Z,68.59
2022-12-08T19:40:32.857Z,68.65
2022-12-08T19:43:21.179Z,68.64
2022-12-08T19:45:50.756Z,68.74
2022-12-08T19:48:19.657Z,68.87
2022-12-08T19:50:48.681Z,68.81
2022-12-08T19:53:18.167Z,68.77
2022-12-08T19:55:48.081Z,68.73
2022-12-08T19:58:18.320Z,68.70
2022-12-08T20:00:48.530Z,68.78
2022-12-08T20:03:19.528Z,68.80
2022-12-08T20:05:50.868Z,68.73
2022-12-08T20:08:20.707Z,68.57
2022-12-08T20:10:51.178Z,68.62
2022-12-08T20:13:39.068Z,68.66
2022-12-08T20:16:09.114Z,68.72
2022-12-08T20:18:40.272Z,68.75
2022-12-08T20:21:10.182Z,68.79
2022-12-08T20:23:39.564Z,68.79
2022-12-08T20:26:12.684Z,68.69
2022-12-08T20:28:41.580Z,68.53
2022-12-08T20:31:26.426Z,68.57
2022-12-08T20:33:55.835Z,68.56
2022-12-08T20:36:25.224Z,68.40
2022-12-08T20:38:55.448Z,68.48
2022-12-08T20:41:25.068Z,68.48
2022-12-08T20:43:54.365Z,68.43
2022-12-08T20:46:24.331Z,68.31
2022-12-08T20:48:53.917Z,68.23
2022-12-08T20:51:25.743Z,68.29
2022-12-08T20:54:00.326Z,68.26
2022-12-08T20:56:29.114Z,68.23
2022-12-08T20:58:58.964Z,68.23
2022-12-08T21:01:28.570Z,68.24
2022-12-08T21:03:57.977Z,68.04
2022-12-08T21:06:28.094Z,68.00
2022-12-08T21:08:56.985Z,67.94
2022-12-08T21:11:25.978Z,67.98
2022-12-08T21:13:56.713Z,67.94
2022-12-08T21:16:27.933Z,67.95
2022-12-08T21:19:00.031Z,67.93
2022-12-08T21:21:29.463Z,68.03
2022-12-08T21:23:59.765Z,67.88
2022-12-08T21:26:29.437Z,67.80
2022-12-08T21:28:59.696Z,67.76
2022-12-08T21:31:32.735Z,67.78
2022-12-08T21:34:03.484Z,67.68
2022-12-08T21:36:33.416Z,67.63
2022-12-08T21:39:02.985Z,67.63
2022-12-08T21:41:51.636Z,67.61
2022-12-08T21:44:21.296Z,68.23
2022-12-08T21:46:52.178Z,68.55
2022-12-08T21:49:21.422Z,68.69
2022-12-08T21:51:50.082Z,68.74
2022-12-08T21:54:19.765Z,68.74
2022-12-08T21:56:51.073Z,68.80
2022-12-08T21:59:21.596Z,68.77
2022-12-08T22:01:51.103Z,68.93
2022-12-08T22:04:25.034Z,69.01
2022-12-08T22:06:54.207Z,69.01
2022-12-08T22:09:23.945Z,69.05
2022-12-08T22:11:53.372Z,69.08
2022-12-08T22:14:23.135Z,69.14
2022-12-08T22:16:52.013Z,69.16
2022-12-08T22:19:21.528Z,69.21
2022-12-08T22:21:51.011Z,69.22
2022-12-08T22:24:19.835Z,69.12
2022-12-08T22:26:49.881Z,69.21
2022-12-08T22:29:20.393Z,69.28
2022-12-08T22:31:49.220Z,69.35
2022-12-08T22:34:19.751Z,69.40
2022-12-08T22:36:49.232Z,69.28
2022-12-08T22:39:18.432Z,69.17
2022-12-08T22:41:47.184Z,69.24
2022-12-08T22:44:16.926Z,69.24
2022-12-08T22:46:46.634Z,69.04
2022-12-08T22:49:15.492Z,69.03
2022-12-08T22:51:44.057Z,69.04
2022-12-08T22:54:13.001Z,68.93
2022-12-08T22:56:41.955Z,68.88
2022-12-08T22:59:10.291Z,68.90
2022-12-08T23:01:38.716Z,68.79
2022-12-08T23:04:09.195Z,68.83
2022-12-08T23:06:41.419Z,68.89
2022-12-08T23:09:10.000Z,68.75
2022-12-08T23:11:38.470Z,68.84
2022-12-08T23:14:06.960Z,68.80
2022-12-08T23:16:35.380Z,68.92
2022-12-08T23:19:04.207Z,68.97
2022-12-08T23:21:32.778Z,69.14
2022-12-08T23:24:02.545Z,69.22
2022-12-08T23:26:33.126Z,69.37
2022-12-08T23:29:01.835Z,69.40
2022-12-08T23:31:30.900Z,69.40
2022-12-08T23:33:59.518Z,69.55
2022-12-08T23:36:28.092Z,69.65
2022-12-08T23:38:56.988Z,69.68
2022-12-08T23:41:25.482Z,69.80
2022-12-08T23:43:53.763Z,69.76
2022-12-08T23:46:23.558Z,69.84
2022-12-08T23:48:52.203Z,69.93
2022-12-08T23:51:20.722Z,69.94
2022-12-08T23:53:49.888Z,69.90
2022-12-08T23:56:19.280Z,69.79
2022-12-08T23:58:47.761Z,69.98
